Time;durP1;ratioP1;P1;durP2;ratioP2;P2;SDS_P1;SDS_P2;PMS_P1;PMS_P2;Temp;Humidity;BMP_temperature;BMP_pressure;BME280_temperature;BME280_humidity;BME280_pressure;Samples;Min_cycle;Max_cycle;Signal;HPM_P1;HPM_P2
2023/10/23 00:16:59;;;;;;;6.63;3.40;;;11.40;99.90;;;;;;6149118;22;20380;-93
2023/10/23 00:20:03;;;;;;;3.37;2.73;;;11.30;99.90;;;;;;6166607;22;20432;-93
2023/10/23 00:23:37;;;;;;;;;;;;;;;;;;;;;
2023/10/23 01:45:14;;;;;;;4.00;3.60;;;10.60;99.90;;;;;;6211485;23;20428;-94
2023/10/23 01:51:37;;;;;;;5.93;4.60;;;10.50;99.90;;;;;;6201084;22;20422;-93
2023/10/23 01:54:34;;;;;;;6.37;4.20;;;10.50;99.90;;;;;;6180677;22;20400;-93
2023/10/23 01:57:13;;;;;;;4.33;3.80;;;10.50;99.90;;;;;;6186358;22;20776;-92
2023/10/23 02:03:10;;;;;;;9.23;5.10;;;10.50;99.90;;;;;;6213620;23;20410;-92
2023/10/23 02:06:10;;;;;;;5.30;4.73;;;10.60;99.90;;;;;;6223937;23;20406;-92
2023/10/23 02:08:41;;;;;;;7.23;5.20;;;;;;;;;;6192153;23;20392;-91
2023/10/23 02:11:20;;;;;;;8.63;5.07;;;10.60;99.90;;;;;;6188565;23;20794;-91
2023/10/23 02:13:48;;;;;;;6.30;5.67;;;;;;;;;;6189817;23;20467;-91
2023/10/23 02:16:16;;;;;;;5.50;4.60;;;;;;;;;;6191211;23;20448;-91
2023/10/23 02:18:47;;;;;;;6.03;4.60;;;10.70;99.90;;;;;;6204873;23;20439;-91
2023/10/23 02:21:24;;;;;;;5.77;5.13;;;10.60;99.90;;;;;;6210123;23;20379;-92
2023/10/23 02:23:55;;;;;;;6.33;4.60;;;10.80;99.90;;;;;;6209643;23;20387;-92
2023/10/23 02:26:22;;;;;;;10.40;6.30;;;10.90;99.90;;;;;;6203422;23;20438;-91
2023/10/23 02:28:49;;;;;;;5.20;4.70;;;;;;;;;;6190796;23;20411;-92
2023/10/23 02:31:21;;;;;;;6.17;4.37;;;;;;;;;;6209604;23;20402;-91
2023/10/23 02:33:48;;;;;;;5.40;4.90;;;;;;;;;;6209444;23;20442;-92
2023/10/23 02:36:22;;;;;;;7.90;4.93;;;10.70;99.90;;;;;;6196186;23;20453;-92
2023/10/23 02:38:50;;;;;;;6.13;4.97;;;;;;;;;;6186364;23;20387;-91
2023/10/23 02:41:25;;;;;;;6.57;5.20;;;;;;;;;;6189815;23;20787;-92
2023/10/23 02:43:55;;;;;;;9.20;5.17;;;;;;;;;;6189946;23;20387;-92
2023/10/23 02:46:24;;;;;;;7.57;4.80;;;;;;;;;;6190150;23;20416;-92
2023/10/23 02:48:54;;;;;;;6.30;5.07;;;10.80;99.90;;;;;;6187716;23;20806;-92
2023/10/23 02:51:23;;;;;;;5.37;4.87;;;10.80;99.90;;;;;;6188130;23;20468;-92
2023/10/23 02:53:50;;;;;;;8.40;5.67;;;;;;;;;;6189560;23;20439;-91
2023/10/23 02:56:18;;;;;;;6.70;5.70;;;;;;;;;;6190535;23;20408;-91
2023/10/23 02:58:45;;;;;;;6.27;5.77;;;;;;;;;;6191181;22;20707;-92
2023/10/23 03:01:28;;;;;;;5.60;5.03;;;10.70;99.90;;;;;;6186782;23;20395;-92
2023/10/23 03:04:04;;;;;;;5.63;5.13;;;;;;;;;;6186924;23;20421;-92
2023/10/23 03:06:38;;;;;;;7.47;4.10;;;10.70;99.90;;;;;;6186175;23;20442;-92
2023/10/23 03:09:09;;;;;;;7.80;3.40;;;;;;;;;;6187023;23;20859;-92
2023/10/23 03:11:39;;;;;;;4.10;3.60;;;;;;;;;;6186836;23;20414;-92
2023/10/23 03:14:14;;;;;;;5.07;4.30;;;;;;;;;;6189620;23;20413;-92
2023/10/23 03:16:43;;;;;;;9.43;4.13;;;;;;;;;;6202985;23;20408;-92
2023/10/23 03:19:22;;;;;;;4.30;4.00;;;;;;;;;;6189406;23;20441;-92
2023/10/23 03:21:55;;;;;;;4.67;4.10;;;10.50;99.90;;;;;;6188290;23;20416;-93
2023/10/23 03:24:23;;;;;;;8.97;4.43;;;;;;;;;;6189774;23;20449;-93
2023/10/23 03:26:53;;;;;;;10.63;3.93;;;;;;;;;;6197149;23;20401;-92
2023/10/23 03:29:30;;;;;;;4.50;3.90;;;10.60;99.90;;;;;;6188653;23;20457;-92
2023/10/23 03:32:08;;;;;;;3.80;3.40;;;10.40;99.90;;;;;;6188134;23;20425;-92
2023/10/23 03:34:37;;;;;;;7.67;3.90;;;;;;;;;;6200548;23;20419;-92
2023/10/23 03:37:14;;;;;;;3.50;3.20;;;10.10;99.90;;;;;;6206324;23;20419;-92
2023/10/23 03:39:41;;;;;;;4.07;3.30;;;;;;;;;;6207944;23;20429;-92
2023/10/23 03:42:09;;;;;;;4.33;3.07;;;;;;;;;;6204941;23;20502;-92
2023/10/23 03:44:39;;;;;;;3.47;3.17;;;10.10;99.90;;;;;;6195621;23;20464;-93
2023/10/23 03:47:11;;;;;;;3.73;3.43;;;10.30;99.90;;;;;;6192299;23;20417;-93
2023/10/23 03:49:43;;;;;;;3.60;3.20;;;10.30;99.90;;;;;;6185966;23;20435;-92
2023/10/23 03:52:16;;;;;;;5.43;3.63;;;10.10;99.90;;;;;;6187797;23;20478;-93
2023/10/23 03:54:49;;;;;;;4.13;3.20;;;10.30;99.90;;;;;;6188979;23;20403;-93
2023/10/23 03:57:17;;;;;;;3.37;3.10;;;;;;;;;;6194537;22;20439;-93
2023/10/23 03:59:44;;;;;;;4.03;3.60;;;;;;;;;;6204753;23;20426;-92
2023/10/23 04:02:22;;;;;;;4.73;3.87;;;10.20;99.90;;;;;;6203788;23;20408;-93
2023/10/23 04:04:52;;;;;;;4.30;3.90;;;10.20;99.90;;;;;;6188801;23;20392;-92
2023/10/23 04:07:22;;;;;;;4.37;3.63;;;10.20;99.90;;;;;;6189134;23;20412;-91
2023/10/23 04:09:52;;;;;;;4.63;4.23;;;10.20;99.90;;;;;;6187153;23;20387;-91
2023/10/23 04:12:31;;;;;;;4.87;3.67;;;;;;;;;;6192685;23;20446;-92
2023/10/23 04:14:58;;;;;;;8.47;4.67;;;;;;;;;;6209162;23;20422;-92
2023/10/23 04:17:26;;;;;;;6.53;4.10;;;;;;;;;;6208926;23;20415;-92
2023/10/23 04:20:04;;;;;;;9.83;5.10;;;10.20;99.90;;;;;;6200391;23;20426;-92
2023/10/23 04:25:20;;;;;;;6.20;5.23;;;;;;;;;;6185774;23;20402;-91
2023/10/23 04:27:56;;;;;;;11.80;5.33;;;10.10;99.90;;;;;;6185764;23;20390;-92
2023/10/23 04:30:32;;;;;;;9.23;5.67;;;10.10;99.90;;;;;;6190640;23;20421;-91
2023/10/23 04:33:00;;;;;;;6.47;5.57;;;;;;;;;;6199766;23;20492;-92
2023/10/23 04:35:58;;;;;;;6.70;6.00;;;10.10;99.90;;;;;;6200312;23;20408;-92
2023/10/23 04:38:30;;;;;;;5.73;4.47;;;10.10;99.90;;;;;;6187130;23;20889;-92
2023/10/23 04:41:06;;;;;;;4.40;3.40;;;10.10;99.90;;;;;;6186038;23;20383;-92
2023/10/23 04:43:35;;;;;;;5.60;3.90;;;;;;;;;;6186916;23;20391;-93
2023/10/23 04:46:13;;;;;;;5.50;3.87;;;10.00;99.90;;;;;;6184407;23;20419;-92
2023/10/23 04:48:45;;;;;;;5.30;4.70;;;10.00;99.90;;;;;;6184228;23;20873;-93
2023/10/23 04:51:18;;;;;;;9.37;6.07;;;10.00;99.90;;;;;;6185552;23;20367;-93
2023/10/23 04:53:52;;;;;;;6.10;5.53;;;10.00;99.90;;;;;;6186491;23;20426;-93
2023/10/23 04:56:27;;;;;;;7.40;5.63;;;;;;;;;;6186504;23;20431;-93
2023/10/23 04:58:59;;;;;;;10.17;5.37;;;10.10;99.90;;;;;;6191175;22;20485;-93
2023/10/23 05:01:32;;;;;;;7.80;6.03;;;10.00;99.90;;;;;;6202087;23;20437;-93
2023/10/23 05:04:05;;;;;;;7.07;5.90;;;;;;;;;;6201713;23;20418;-90
2023/10/23 05:06:36;;;;;;;7.97;6.40;;;10.00;99.90;;;;;;6187463;23;20434;-92
2023/10/23 05:09:05;;;;;;;9.13;5.37;;;9.90;99.90;;;;;;6186797;23;20414;-93
2023/10/23 05:11:46;;;;;;;8.40;6.37;;;9.90;99.90;;;;;;6187424;23;20419;-94
2023/10/23 05:14:13;;;;;;;9.07;7.97;;;;;;;;;;6188730;23;20426;-93
2023/10/23 05:16:49;;;;;;;10.53;7.37;;;9.90;99.90;;;;;;6191065;23;20776;-91
2023/10/23 05:19:21;;;;;;;8.03;6.53;;;9.90;99.90;;;;;;6198585;23;20391;-92
2023/10/23 05:21:52;;;;;;;11.83;7.70;;;;;;;;;;6191091;23;20772;-92
2023/10/23 05:24:26;;;;;;;10.37;8.50;;;9.80;99.90;;;;;;6189147;23;20398;-92
2023/10/23 05:27:00;;;;;;;9.10;6.70;;;9.80;99.90;;;;;;6190014;23;20409;-91
2023/10/23 05:29:39;;;;;;;7.17;6.40;;;;;;;;;;6188818;23;20768;-92
2023/10/23 05:32:12;;;;;;;8.40;7.57;;;9.80;99.90;;;;;;6187569;23;20391;-92
2023/10/23 05:34:48;;;;;;;8.13;7.33;;;9.80;99.90;;;;;;6187177;23;20438;-92
2023/10/23 05:37:34;;;;;;;6.50;5.90;;;9.80;99.90;;;;;;6187721;23;20386;-91
2023/10/23 05:40:16;;;;;;;9.00;5.80;;;9.90;99.90;;;;;;6190796;23;20358;-91
2023/10/23 05:42:48;;;;;;;15.20;7.43;;;;;;;;;;6199195;23;20427;-92
2023/10/23 05:45:19;;;;;;;13.43;7.20;;;9.80;99.90;;;;;;6200071;23;20411;-92
2023/10/23 05:47:55;;;;;;;8.03;6.50;;;9.70;99.90;;;;;;6203331;23;20439;-92
2023/10/23 05:53:27;;;;;;;27.87;8.83;;;9.70;99.90;;;;;;6188951;23;20937;-94
2023/10/23 05:56:03;;;;;;;15.87;8.87;;;9.70;99.90;;;;;;6188266;23;20726;-94
2023/10/23 05:58:39;;;;;;;11.47;7.90;;;;;;;;;;6188019;22;20403;-93
2023/10/23 06:01:14;;;;;;;11.93;8.70;;;;;;;;;;6207848;23;20479;-92
2023/10/23 06:04:01;;;;;;;14.23;9.17;;;9.80;99.90;;;;;;6210020;23;20448;-92
2023/10/23 06:24:53;;;;;;;12.90;6.20;;;10.00;99.90;;;;;;6079960;23;20367;-93
2023/10/23 06:30:34;;;;;;;6.13;5.57;;;10.10;99.90;;;;;;6218445;23;20468;-92
2023/10/23 06:33:32;;;;;;;12.27;7.03;;;10.10;99.90;;;;;;6133499;23;20451;-93
2023/10/23 06:49:25;;;;;;;7.47;6.37;;;10.10;99.90;;;;;;6228656;22;20491;-94
2023/10/23 06:52:37;;;;;;;;;;;;;;;;;;;;;
2023/10/23 06:55:40;;;;;;;10.20;7.00;;;10.50;99.90;;;;;;6227540;23;20433;-93
2023/10/23 06:58:54;;;;;;;;;;;;;;;;;;;;;
2023/10/23 09:31:42;;;;;;;8.30;7.40;;;12.60;99.90;;;;;;6200690;22;20784;-88
2023/10/23 09:34:10;;;;;;;10.50;7.40;;;12.80;99.90;;;;;;6219866;22;20469;-89
2023/10/23 09:36:38;;;;;;;8.57;7.30;;;;;;;;;;6223095;23;20498;-90
2023/10/23 09:39:06;;;;;;;7.60;6.80;;;12.60;99.90;;;;;;6235051;22;20386;-91
2023/10/23 09:41:34;;;;;;;10.33;7.77;;;12.90;99.90;;;;;;6265171;22;20421;-89
2023/10/23 14:32:34;;;;;;;6.20;5.50;;;14.30;99.90;;;;;;6332843;22;20210;-94
2023/10/23 14:43:34;;;;;;;;;;;;;;;;;;;;;
